Time;durP1;ratioP1;P1;durP2;ratioP2;P2;SDS_P1;SDS_P2;PMS_P1;PMS_P2;Temp;Humidity;BMP_temperature;BMP_pressure;BME280_temperature;BME280_humidity;BME280_pressure;Samples;Min_cycle;Max_cycle;Signal;HPM_P1;HPM_P2
2021/07/05 00:00:14;;;;;;;3.35;2.20;;;17.80;99.90;;;;;;5071869;28;20056;-67
2021/07/05 00:02:41;;;;;;;2.85;2.00;;;17.90;99.90;;;;;;5069979;28;20032;-66
2021/07/05 00:05:08;;;;;;;4.15;1.88;;;17.80;99.90;;;;;;5071944;28;20123;-67
2021/07/05 00:07:34;;;;;;;2.70;2.03;;;17.90;99.90;;;;;;5069572;28;20385;-69
2021/07/05 00:10:00;;;;;;;4.90;2.17;;;17.90;99.90;;;;;;5070883;28;20029;-67
2021/07/05 00:12:26;;;;;;;5.30;2.97;;;17.80;99.90;;;;;;5070568;28;20086;-68
2021/07/05 00:14:52;;;;;;;2.85;2.22;;;17.80;99.90;;;;;;5069561;28;20611;-68
2021/07/05 00:17:18;;;;;;;2.65;2.45;;;17.80;99.90;;;;;;5070674;28;20099;-68
2021/07/05 00:19:44;;;;;;;8.27;2.45;;;17.80;99.90;;;;;;5069652;28;20134;-67
2021/07/05 00:22:10;;;;;;;5.07;2.03;;;17.80;99.90;;;;;;5071632;28;20052;-66
2021/07/05 00:24:35;;;;;;;4.63;2.75;;;17.80;99.90;;;;;;5069596;28;20049;-68
2021/07/05 00:27:01;;;;;;;4.50;2.28;;;17.80;99.90;;;;;;5071298;28;20085;-68
2021/07/05 00:29:27;;;;;;;4.60;2.53;;;17.60;99.90;;;;;;5070584;28;20051;-67
2021/07/05 00:31:52;;;;;;;4.55;2.70;;;17.60;99.90;;;;;;5069221;28;20617;-67
2021/07/05 00:34:18;;;;;;;2.78;2.10;;;17.70;99.90;;;;;;5069690;28;20118;-68
2021/07/05 00:36:44;;;;;;;4.20;2.20;;;17.60;99.90;;;;;;5070605;28;20023;-68
2021/07/05 00:39:10;;;;;;;4.70;2.40;;;17.50;99.90;;;;;;5071111;28;20078;-70
2021/07/05 00:41:36;;;;;;;4.05;2.97;;;17.60;99.90;;;;;;5070628;28;20029;-68
2021/07/05 00:44:01;;;;;;;5.80;2.15;;;17.50;99.90;;;;;;5069647;28;20040;-68
2021/07/05 00:46:27;;;;;;;3.42;2.30;;;17.50;99.90;;;;;;5070081;28;20437;-68
2021/07/05 00:48:54;;;;;;;3.25;2.03;;;17.60;99.90;;;;;;5069087;28;20033;-68
2021/07/05 00:51:20;;;;;;;5.18;2.00;;;17.50;99.90;;;;;;5069917;28;20044;-67
2021/07/05 00:53:48;;;;;;;3.25;2.05;;;17.50;99.90;;;;;;5068632;28;20060;-70
2021/07/05 00:56:15;;;;;;;2.63;1.90;;;17.60;99.90;;;;;;5070964;28;20047;-68
2021/07/05 00:58:41;;;;;;;3.90;1.63;;;17.40;99.90;;;;;;5068972;28;20098;-67
2021/07/05 01:01:07;;;;;;;2.80;2.13;;;17.50;99.90;;;;;;5069183;28;20458;-68
2021/07/05 01:03:33;;;;;;;2.45;2.00;;;17.50;99.90;;;;;;5069326;28;20056;-70
2021/07/05 01:05:59;;;;;;;3.42;2.42;;;17.50;99.90;;;;;;5070758;28;20028;-67
2021/07/05 01:08:25;;;;;;;5.63;2.95;;;17.40;99.90;;;;;;5069600;28;20024;-68
2021/07/05 01:10:51;;;;;;;4.18;1.92;;;17.30;99.90;;;;;;5069604;28;20039;-68
2021/07/05 01:13:16;;;;;;;7.78;2.60;;;17.30;99.90;;;;;;5069313;28;20034;-68
2021/07/05 01:15:42;;;;;;;3.78;2.00;;;17.40;99.90;;;;;;5069781;28;20033;-70
2021/07/05 01:18:08;;;;;;;6.53;2.08;;;17.40;99.90;;;;;;5070868;28;20041;-69
2021/07/05 01:20:37;;;;;;;5.28;2.28;;;17.40;99.90;;;;;;5067906;28;20068;-71
2021/07/05 01:23:04;;;;;;;4.07;1.85;;;17.30;99.90;;;;;;5066343;28;20048;-68
2021/07/05 01:25:31;;;;;;;3.08;2.03;;;17.30;99.90;;;;;;5050613;28;20028;-68
2021/07/05 01:27:58;;;;;;;2.97;2.42;;;17.30;99.90;;;;;;5031894;28;20049;-67
2021/07/05 01:30:24;;;;;;;7.28;2.08;;;17.30;99.90;;;;;;5050256;28;20040;-68
2021/07/05 01:32:53;;;;;;;5.55;2.40;;;17.20;99.90;;;;;;5049400;28;20033;-68
2021/07/05 01:35:19;;;;;;;6.85;2.25;;;17.30;99.90;;;;;;5050785;28;20112;-68
2021/07/05 01:37:45;;;;;;;4.28;2.30;;;17.20;99.90;;;;;;5031676;28;20454;-67
2021/07/05 01:40:17;;;;;;;2.90;2.20;;;17.30;99.90;;;;;;5032799;28;20028;-67
2021/07/05 01:42:50;;;;;;;3.85;1.90;;;17.30;99.90;;;;;;5049837;28;20048;-68
2021/07/05 01:45:20;;;;;;;5.30;2.47;;;17.30;99.90;;;;;;5032388;28;20040;-68
2021/07/05 01:47:46;;;;;;;5.45;2.22;;;17.40;99.90;;;;;;5031782;28;20044;-68
2021/07/05 01:50:13;;;;;;;5.05;2.50;;;17.30;99.90;;;;;;5050544;28;20033;-68
2021/07/05 01:52:39;;;;;;;10.50;2.40;;;17.10;99.90;;;;;;5049351;28;20040;-69
2021/07/05 01:55:06;;;;;;;4.25;2.00;;;17.30;99.90;;;;;;5050710;28;20025;-69
2021/07/05 01:57:33;;;;;;;4.80;1.80;;;17.20;99.90;;;;;;5050114;28;20033;-68
2021/07/05 02:00:04;;;;;;;3.40;2.08;;;17.20;99.90;;;;;;5049545;28;20036;-68
2021/07/05 02:02:29;;;;;;;4.57;2.15;;;17.20;99.90;;;;;;5050294;28;20107;-68
2021/07/05 02:04:55;;;;;;;7.28;2.42;;;17.20;99.90;;;;;;5031524;28;20159;-68
2021/07/05 02:07:22;;;;;;;4.05;2.33;;;17.30;99.90;;;;;;5049801;28;20087;-68
2021/07/05 02:09:47;;;;;;;3.72;2.00;;;17.30;99.90;;;;;;5049178;28;20033;-69
2021/07/05 02:12:14;;;;;;;3.63;2.00;;;17.30;99.90;;;;;;5032286;28;20028;-68
2021/07/05 02:14:41;;;;;;;5.72;2.17;;;17.30;99.90;;;;;;5031103;28;20033;-70
2021/07/05 02:17:09;;;;;;;4.93;2.10;;;17.40;99.90;;;;;;5032556;28;20053;-67
2021/07/05 02:19:35;;;;;;;4.03;2.65;;;17.30;99.90;;;;;;5032269;28;20025;-68
2021/07/05 02:22:02;;;;;;;5.72;2.30;;;17.30;99.90;;;;;;5031287;28;20037;-67
2021/07/05 02:24:29;;;;;;;3.78;1.90;;;17.40;99.90;;;;;;5058068;28;20131;-67
2021/07/05 02:26:55;;;;;;;7.00;1.88;;;17.40;99.90;;;;;;5068906;28;20094;-68
2021/07/05 02:29:20;;;;;;;5.28;1.85;;;17.40;99.90;;;;;;5068841;28;20440;-66
2021/07/05 02:31:46;;;;;;;3.00;2.35;;;17.40;99.90;;;;;;5067487;28;20393;-70
2021/07/05 02:34:12;;;;;;;3.80;1.98;;;17.30;99.90;;;;;;5072027;28;20055;-69
2021/07/05 02:36:37;;;;;;;4.75;2.05;;;17.30;99.90;;;;;;5072210;28;20378;-71
2021/07/05 02:39:05;;;;;;;5.25;2.47;;;17.30;99.90;;;;;;5073591;28;20078;-68
2021/07/05 02:41:30;;;;;;;7.90;2.10;;;17.30;99.90;;;;;;5073351;28;20029;-67
2021/07/05 02:43:56;;;;;;;2.90;1.95;;;17.30;99.90;;;;;;5071304;28;20077;-70
2021/07/05 02:46:21;;;;;;;2.40;2.03;;;17.30;99.90;;;;;;5072452;28;20024;-68
2021/07/05 02:48:47;;;;;;;4.50;2.20;;;17.30;99.90;;;;;;5071370;28;20067;-67
2021/07/05 02:51:13;;;;;;;3.40;2.03;;;17.30;99.90;;;;;;5072054;28;20097;-69
2021/07/05 02:53:39;;;;;;;3.30;2.22;;;17.20;99.90;;;;;;5071959;28;20043;-72
2021/07/05 02:56:05;;;;;;;4.80;2.30;;;17.30;99.90;;;;;;5072281;28;20028;-69
2021/07/05 02:58:32;;;;;;;5.97;2.60;;;17.40;99.90;;;;;;5072925;28;20028;-67
2021/07/05 03:01:00;;;;;;;5.80;2.40;;;17.30;99.90;;;;;;5070895;28;20071;-68
2021/07/05 03:03:26;;;;;;;20.42;2.60;;;17.20;99.90;;;;;;5072935;28;20028;-68
2021/07/05 03:05:52;;;;;;;7.30;2.35;;;17.20;99.90;;;;;;5070569;28;20138;-68
2021/07/05 03:08:19;;;;;;;5.15;2.30;;;17.20;99.90;;;;;;5071182;28;20052;-68
2021/07/05 03:10:45;;;;;;;3.67;2.10;;;17.20;99.90;;;;;;5070734;28;20119;-68
2021/07/05 03:13:13;;;;;;;5.38;1.70;;;17.20;99.90;;;;;;5073104;28;20023;-68
2021/07/05 03:15:39;;;;;;;7.00;2.60;;;17.20;99.90;;;;;;5072006;28;20033;-68
2021/07/05 03:18:06;;;;;;;6.07;2.58;;;17.10;99.90;;;;;;5072542;28;20454;-69
2021/07/05 03:20:35;;;;;;;5.70;2.13;;;17.20;99.90;;;;;;5072648;28;20120;-68
2021/07/05 03:23:02;;;;;;;4.32;2.15;;;17.30;99.90;;;;;;5069280;28;20084;-68
2021/07/05 03:25:31;;;;;;;8.93;2.30;;;17.30;99.90;;;;;;5053030;28;20025;-69
2021/07/05 03:27:58;;;;;;;3.47;1.60;;;17.40;99.90;;;;;;5033494;28;20583;-68
2021/07/05 03:30:25;;;;;;;3.58;2.22;;;17.30;99.90;;;;;;5034798;28;20025;-69
2021/07/05 03:32:51;;;;;;;3.90;1.90;;;17.30;99.90;;;;;;5033835;28;20029;-69
2021/07/05 03:35:18;;;;;;;2.67;2.03;;;17.40;99.90;;;;;;5035083;28;20025;-68
2021/07/05 03:37:44;;;;;;;14.13;2.78;;;17.40;99.90;;;;;;5051965;28;20033;-70
2021/07/05 03:40:13;;;;;;;4.15;1.70;;;17.40;99.90;;;;;;5052598;28;20031;-68
2021/07/05 03:42:38;;;;;;;3.03;1.88;;;17.50;99.90;;;;;;5034736;28;20370;-68
2021/07/05 03:45:06;;;;;;;3.60;1.92;;;17.50;99.90;;;;;;5032875;28;20091;-68
2021/07/05 03:47:32;;;;;;;4.45;1.98;;;17.50;99.90;;;;;;5034588;28;20033;-68
2021/07/05 03:49:58;;;;;;;3.17;2.15;;;17.50;99.90;;;;;;5033748;28;20115;-68
2021/07/05 03:52:24;;;;;;;2.58;1.50;;;17.50;99.90;;;;;;5033901;28;20120;-69
2021/07/05 03:54:50;;;;;;;2.97;2.08;;;17.50;99.90;;;;;;5051126;28;20025;-68
2021/07/05 03:57:22;;;;;;;2.63;1.50;;;17.40;99.90;;;;;;5033631;28;20055;-68
2021/07/05 03:59:54;;;;;;;2.95;1.77;;;17.50;99.90;;;;;;5051243;28;20031;-68
2021/07/05 04:02:21;;;;;;;3.60;2.08;;;17.50;99.90;;;;;;5034174;28;20048;-69
2021/07/05 04:04:47;;;;;;;3.28;1.75;;;17.40;99.90;;;;;;5033217;28;20033;-69
2021/07/05 04:07:13;;;;;;;4.88;1.73;;;17.60;99.90;;;;;;5034011;28;20138;-67
2021/07/05 04:09:42;;;;;;;2.20;1.67;;;17.60;99.90;;;;;;5051544;28;20024;-69
2021/07/05 04:12:10;;;;;;;2.78;1.75;;;17.60;99.90;;;;;;5033341;28;20078;-67
2021/07/05 04:14:36;;;;;;;3.90;1.63;;;17.60;99.90;;;;;;5033970;28;20025;-70
2021/07/05 04:17:01;;;;;;;5.43;1.23;;;17.60;99.90;;;;;;5033103;28;20025;-69
2021/07/05 04:19:27;;;;;;;6.10;1.80;;;17.60;99.90;;;;;;5051492;28;20089;-70
2021/07/05 04:21:53;;;;;;;5.78;1.85;;;17.80;99.90;;;;;;5051002;28;20048;-70
2021/07/05 04:24:18;;;;;;;4.70;1.20;;;17.80;99.90;;;;;;5051200;28;20068;-69
2021/07/05 04:26:44;;;;;;;2.65;1.30;;;17.90;99.90;;;;;;5033456;28;20043;-72
2021/07/05 04:29:10;;;;;;;2.83;1.67;;;17.90;99.90;;;;;;5051230;28;20123;-69
2021/07/05 04:31:36;;;;;;;4.00;1.85;;;17.90;99.90;;;;;;5033429;28;20107;-68
2021/07/05 04:34:01;;;;;;;4.85;1.67;;;18.00;99.90;;;;;;5032305;28;20029;-70
2021/07/05 04:36:27;;;;;;;4.57;2.03;;;18.00;99.90;;;;;;5050895;28;20033;-69
2021/07/05 04:38:53;;;;;;;3.50;1.00;;;18.00;99.90;;;;;;5050553;28;20104;-68
2021/07/05 04:41:18;;;;;;;2.10;1.95;;;18.00;99.90;;;;;;5033416;28;20026;-68
2021/07/05 04:43:44;;;;;;;3.28;1.20;;;18.00;99.90;;;;;;5033296;28;20025;-70
2021/07/05 04:46:10;;;;;;;3.85;1.17;;;18.00;99.90;;;;;;5033051;28;20494;-70
2021/07/05 04:48:36;;;;;;;6.13;2.53;;;18.00;99.90;;;;;;5033204;28;20067;-69
2021/07/05 04:51:03;;;;;;;1.90;1.42;;;17.90;99.90;;;;;;5031653;28;20328;-67
2021/07/05 04:53:29;;;;;;;3.33;1.50;;;17.80;99.90;;;;;;5051392;28;20029;-67
2021/07/05 04:55:57;;;;;;;3.80;1.52;;;17.70;99.90;;;;;;5049685;28;20021;-68
2021/07/05 04:58:23;;;;;;;3.05;1.52;;;17.80;99.90;;;;;;5051225;28;20036;-69
2021/07/05 05:00:49;;;;;;;5.05;1.90;;;17.80;99.90;;;;;;5050705;28;20029;-72
2021/07/05 05:03:15;;;;;;;2.65;1.40;;;17.80;99.90;;;;;;5033332;28;20078;-69
2021/07/05 05:05:41;;;;;;;3.78;1.80;;;17.90;99.90;;;;;;5033323;28;20025;-69
2021/07/05 05:08:08;;;;;;;6.03;1.90;;;17.90;99.90;;;;;;5049900;28;20102;-70
2021/07/05 05:10:35;;;;;;;3.10;1.60;;;17.90;99.90;;;;;;5033022;28;20189;-68
2021/07/05 05:13:01;;;;;;;2.88;1.70;;;18.00;99.90;;;;;;5032605;28;20056;-69
2021/07/05 05:15:27;;;;;;;2.85;1.48;;;18.00;99.90;;;;;;5033003;28;20390;-71
2021/07/05 05:17:53;;;;;;;3.90;1.55;;;18.00;99.90;;;;;;5050046;28;20029;-69
2021/07/05 05:20:21;;;;;;;5.55;1.45;;;18.00;99.90;;;;;;5056456;28;20028;-69
2021/07/05 05:22:48;;;;;;;4.63;2.20;;;18.10;99.90;;;;;;5061050;28;20029;-72
2021/07/05 05:25:15;;;;;;;3.30;1.83;;;18.00;99.90;;;;;;5052106;28;20031;-69
2021/07/05 05:27:41;;;;;;;5.07;1.42;;;18.00;99.90;;;;;;5051715;28;20033;-68
2021/07/05 05:30:10;;;;;;;4.97;1.10;;;18.30;99.90;;;;;;5051639;28;20035;-57
2021/07/05 05:32:35;;;;;;;1.27;0.88;;;18.90;99.90;;;;;;5052164;28;20461;-57
2021/07/05 05:35:03;;;;;;;2.15;1.20;;;19.30;99.90;;;;;;5047965;28;20031;-56
2021/07/05 05:37:28;;;;;;;2.00;1.42;;;19.50;99.90;;;;;;5070350;28;20060;-56
2021/07/05 05:39:54;;;;;;;2.10;0.82;;;19.60;99.90;;;;;;5053227;28;20147;-58
2021/07/05 05:42:20;;;;;;;5.75;1.25;;;19.60;99.90;;;;;;5031594;28;20427;-58
2021/07/05 05:44:45;;;;;;;8.57;1.25;;;19.90;99.90;;;;;;5031947;28;20351;-56
2021/07/05 05:47:12;;;;;;;5.65;1.75;;;20.10;99.90;;;;;;5047703;28;20442;-55
2021/07/05 05:49:38;;;;;;;4.18;1.88;;;20.20;99.90;;;;;;5030695;28;20128;-55
2021/07/05 05:52:04;;;;;;;2.90;1.00;;;19.80;99.90;;;;;;5029233;28;20100;-57
2021/07/05 05:54:30;;;;;;;8.15;1.63;;;19.90;99.90;;;;;;5048921;28;20028;-58
2021/07/05 05:56:55;;;;;;;1.88;1.42;;;20.20;99.90;;;;;;5030196;28;20481;-57
2021/07/05 05:59:21;;;;;;;2.08;1.52;;;20.00;99.90;;;;;;5068676;28;20122;-56
2021/07/05 06:01:51;;;;;;;4.88;1.02;;;20.20;99.90;;;;;;5088928;28;20461;-61
2021/07/05 06:04:18;;;;;;;3.25;1.05;;;20.20;99.90;;;;;;5070551;28;20046;-58
2021/07/05 06:06:44;;;;;;;1.25;1.10;;;20.30;99.90;;;;;;5071501;28;20081;-55
2021/07/05 06:09:10;;;;;;;3.40;1.33;;;20.60;99.90;;;;;;5073736;28;20044;-59
2021/07/05 06:11:37;;;;;;;3.08;0.90;;;20.50;99.90;;;;;;5034658;28;20025;-57
2021/07/05 06:14:04;;;;;;;2.58;1.35;;;20.20;99.90;;;;;;5033549;28;20029;-56
2021/07/05 06:16:30;;;;;;;2.28;0.82;;;20.10;99.90;;;;;;5034673;28;20108;-60
2021/07/05 06:18:56;;;;;;;2.60;1.25;;;20.10;99.90;;;;;;5053190;28;20595;-56
2021/07/05 06:21:22;;;;;;;6.32;1.30;;;20.20;99.90;;;;;;5052803;28;20056;-56
2021/07/05 06:23:49;;;;;;;3.58;1.10;;;20.40;99.90;;;;;;5052452;28;20053;-67
2021/07/05 06:26:15;;;;;;;3.60;1.25;;;20.40;99.90;;;;;;5052762;28;20033;-55
2021/07/05 06:28:41;;;;;;;6.63;1.77;;;20.00;99.90;;;;;;5052506;28;20788;-57
2021/07/05 06:31:07;;;;;;;2.50;1.30;;;19.80;99.90;;;;;;5033819;28;20155;-54
2021/07/05 06:33:33;;;;;;;2.53;0.95;;;20.00;99.90;;;;;;5052340;28;20109;-57
2021/07/05 06:35:59;;;;;;;4.20;1.00;;;20.10;99.90;;;;;;5033928;28;20511;-58
2021/07/05 06:38:26;;;;;;;5.53;1.08;;;20.40;99.90;;;;;;5034715;28;20347;-59
2021/07/05 06:40:52;;;;;;;2.85;1.20;;;20.40;99.90;;;;;;5033152;28;20108;-55
2021/07/05 06:43:18;;;;;;;3.80;1.10;;;20.30;99.90;;;;;;5051965;28;20040;-57
2021/07/05 06:45:44;;;;;;;5.03;1.95;;;20.20;99.90;;;;;;5052026;28;20486;-55
2021/07/05 06:48:10;;;;;;;1.67;1.10;;;20.10;99.90;;;;;;5039049;28;20055;-57
2021/07/05 06:50:37;;;;;;;5.60;2.05;;;19.90;99.90;;;;;;5052029;28;20077;-54
2021/07/05 06:53:04;;;;;;;4.22;2.15;;;19.50;99.90;;;;;;5033537;28;20458;-54
2021/07/05 06:55:30;;;;;;;8.95;2.70;;;19.40;99.90;;;;;;5051900;28;20055;-53
2021/07/05 06:57:56;;;;;;;11.52;1.73;;;19.40;99.90;;;;;;5051469;28;20517;-55
2021/07/05 07:00:27;;;;;;;5.53;2.15;;;19.30;99.90;;;;;;5033423;28;20025;-59
2021/07/05 07:02:55;;;;;;;4.38;2.05;;;19.20;99.90;;;;;;5051509;28;20414;-54
2021/07/05 07:05:22;;;;;;;3.08;1.63;;;19.10;99.90;;;;;;5051909;28;20044;-56
2021/07/05 07:07:50;;;;;;;3.03;2.08;;;19.20;99.90;;;;;;5033876;28;20044;-55
2021/07/05 07:10:19;;;;;;;9.02;1.98;;;19.30;99.90;;;;;;5033224;28;20098;-58
2021/07/05 07:12:48;;;;;;;7.35;1.73;;;19.30;99.90;;;;;;5033628;28;20025;-57
2021/07/05 07:15:16;;;;;;;6.18;1.80;;;19.60;99.90;;;;;;5032456;28;20055;-55
2021/07/05 07:17:49;;;;;;;3.67;2.33;;;19.60;99.90;;;;;;5050727;28;20047;-70
2021/07/05 07:20:15;;;;;;;5.82;1.90;;;19.50;99.90;;;;;;5032066;28;20112;-68
2021/07/05 07:22:41;;;;;;;3.45;1.70;;;19.50;99.90;;;;;;5032553;28;20047;-68
2021/07/05 07:25:09;;;;;;;2.78;1.65;;;19.50;99.90;;;;;;5072196;28;20068;-69
2021/07/05 07:27:36;;;;;;;5.05;1.67;;;19.50;99.90;;;;;;5088361;28;20119;-69
2021/07/05 07:30:05;;;;;;;4.43;1.88;;;19.50;99.90;;;;;;5083234;28;20108;-70
2021/07/05 07:32:30;;;;;;;6.32;1.92;;;19.30;99.90;;;;;;5069316;28;20055;-72
2021/07/05 07:34:56;;;;;;;3.65;2.58;;;19.30;99.90;;;;;;5070972;28;20052;-71
2021/07/05 07:37:22;;;;;;;7.25;2.42;;;19.20;99.90;;;;;;5071499;28;20290;-69
2021/07/05 07:39:57;;;;;;;4.38;2.80;;;19.00;99.90;;;;;;5071553;28;20089;-72
2021/07/05 07:42:23;;;;;;;4.78;3.20;;;19.20;99.90;;;;;;5070000;28;20066;-74
2021/07/05 07:44:49;;;;;;;4.57;3.13;;;19.20;99.90;;;;;;5069142;28;20028;-75
2021/07/05 07:47:15;;;;;;;4.45;2.70;;;19.50;99.90;;;;;;5070834;28;20027;-71
2021/07/05 07:49:40;;;;;;;5.68;2.92;;;19.80;99.90;;;;;;5069920;28;20020;-71
2021/07/05 07:52:06;;;;;;;6.93;2.40;;;19.70;99.90;;;;;;5068997;28;20033;-74
2021/07/05 07:54:32;;;;;;;5.80;2.70;;;19.60;99.90;;;;;;5071200;28;20138;-69
2021/07/05 07:56:59;;;;;;;3.35;2.28;;;19.50;99.90;;;;;;5068826;28;20088;-69
2021/07/05 07:59:25;;;;;;;4.03;2.17;;;19.40;99.90;;;;;;5069423;28;20028;-73
2021/07/05 08:01:50;;;;;;;7.10;2.20;;;19.60;99.90;;;;;;5070570;28;20452;-70
2021/07/05 08:04:16;;;;;;;5.60;2.30;;;19.60;99.90;;;;;;5069378;28;20579;-73
2021/07/05 08:06:42;;;;;;;6.65;2.53;;;19.60;99.90;;;;;;5069388;28;20049;-74
2021/07/05 08:09:09;;;;;;;5.57;2.30;;;19.80;99.90;;;;;;5068830;28;20403;-73
2021/07/05 08:11:36;;;;;;;8.85;2.50;;;19.90;99.90;;;;;;5069352;28;20029;-70
2021/07/05 08:14:05;;;;;;;2.83;2.25;;;20.10;99.90;;;;;;5069799;28;20020;-73
2021/07/05 08:16:31;;;;;;;7.97;1.75;;;20.10;99.90;;;;;;5070389;28;20039;-72
2021/07/05 08:18:57;;;;;;;3.63;1.90;;;19.90;99.90;;;;;;5068391;28;20106;-73
2021/07/05 08:21:24;;;;;;;2.85;1.73;;;19.80;99.90;;;;;;5068593;28;20056;-75
2021/07/05 08:23:49;;;;;;;5.03;2.20;;;19.70;99.90;;;;;;5059998;28;20055;-70
2021/07/05 08:26:15;;;;;;;3.78;1.90;;;19.90;99.90;;;;;;5032499;28;20017;-73
2021/07/05 08:28:42;;;;;;;3.35;1.92;;;20.20;99.90;;;;;;5031982;28;20025;-73
2021/07/05 08:31:08;;;;;;;2.85;2.15;;;20.00;99.90;;;;;;5030927;28;20495;-74
2021/07/05 08:33:35;;;;;;;3.58;1.60;;;19.80;99.90;;;;;;5032610;28;20116;-73
2021/07/05 08:36:01;;;;;;;17.27;3.45;;;19.80;99.90;;;;;;5032309;28;20028;-74
2021/07/05 08:38:27;;;;;;;7.47;1.92;;;19.80;99.90;;;;;;5032702;28;20426;-68
2021/07/05 08:40:56;;;;;;;5.68;2.10;;;19.90;99.90;;;;;;5031714;28;20060;-72
2021/07/05 08:43:27;;;;;;;2.45;1.42;;;20.00;99.90;;;;;;5032408;28;20083;-70
2021/07/05 08:46:05;;;;;;;5.03;2.17;;;19.90;99.90;;;;;;5049634;28;20024;-73
2021/07/05 08:48:36;;;;;;;3.10;1.35;;;19.90;99.90;;;;;;5049898;28;20037;-73
2021/07/05 08:51:07;;;;;;;;;;;19.80;99.90;;;;;;5031884;28;20509;-73
2021/07/05 08:53:32;;;;;;;4.40;1.45;;;19.60;99.90;;;;;;5032167;28;19901;-74
2021/07/05 08:55:59;;;;;;;3.40;1.52;;;19.90;99.90;;;;;;5030985;28;20446;-73
2021/07/05 08:58:25;;;;;;;1.73;1.20;;;20.10;99.90;;;;;;5050412;28;20036;-72
2021/07/05 09:00:51;;;;;;;3.60;1.20;;;20.30;99.90;;;;;;5031153;28;20059;-71
2021/07/05 09:03:25;;;;;;;2.22;1.50;;;20.30;99.90;;;;;;5031776;28;20056;-70
2021/07/05 09:06:15;;;;;;;1.40;1.30;;;20.40;99.90;;;;;;5031327;28;20471;-70
2021/07/05 09:08:42;;;;;;;1.73;1.27;;;20.60;99.90;;;;;;5049985;28;20311;-71
2021/07/05 09:11:11;;;;;;;2.78;1.52;;;20.50;99.90;;;;;;5031520;28;20044;-70
2021/07/05 09:13:46;;;;;;;4.22;1.50;;;20.60;99.90;;;;;;5031784;28;20451;-70
2021/07/05 09:16:12;;;;;;;4.97;1.38;;;20.60;99.90;;;;;;5031257;28;20017;-70
2021/07/05 09:18:43;;;;;;;4.40;1.63;;;20.60;99.90;;;;;;5030965;28;20032;-71
2021/07/05 09:21:19;;;;;;;2.60;1.23;;;20.60;99.90;;;;;;5030562;28;20237;-72
2021/07/05 09:23:56;;;;;;;5.25;1.30;;;20.60;99.90;;;;;;5045616;28;20083;-70
2021/07/05 09:26:32;;;;;;;2.72;1.20;;;20.80;99.90;;;;;;5068071;28;20024;-72
2021/07/05 09:29:03;;;;;;;6.50;1.40;;;20.70;99.90;;;;;;5046379;28;20228;-73
2021/07/05 09:31:39;;;;;;;5.70;1.63;;;21.00;99.90;;;;;;5031040;28;20128;-72
2021/07/05 09:34:19;;;;;;;1.10;1.00;;;21.20;99.90;;;;;;5013774;28;20039;-72
2021/07/05 09:36:46;;;;;;;8.95;1.38;;;21.50;99.90;;;;;;5030955;28;20021;-72
2021/07/05 09:39:17;;;;;;;2.65;1.25;;;21.80;99.90;;;;;;5039130;28;20119;-72
2021/07/05 09:41:44;;;;;;;2.08;1.20;;;22.30;99.90;;;;;;5050261;28;20024;-71
2021/07/05 09:44:16;;;;;;;5.80;1.50;;;22.60;99.90;;;;;;5050050;28;20045;-73
2021/07/05 09:46:47;;;;;;;2.67;1.20;;;22.40;99.90;;;;;;5068308;28;20088;-55
2021/07/05 09:49:33;;;;;;;3.10;1.30;;;22.30;99.90;;;;;;5051912;28;20119;-55
2021/07/05 09:52:24;;;;;;;2.30;1.60;;;22.40;99.90;;;;;;5066656;28;20374;-57
2021/07/05 09:54:59;;;;;;;12.75;2.33;;;22.50;99.90;;;;;;5066252;28;20037;-63
2021/07/05 09:57:40;;;;;;;4.32;1.60;;;22.60;99.90;;;;;;5067186;28;20032;-57
2021/07/05 10:00:09;;;;;;;8.50;1.95;;;22.60;99.90;;;;;;5066977;28;20032;-55
2021/07/05 10:02:59;;;;;;;1.38;1.27;;;22.60;99.90;;;;;;5067922;28;20025;-55
2021/07/05 10:05:30;;;;;;;2.13;0.55;;;22.90;99.90;;;;;;5069213;28;20017;-56
2021/07/05 10:07:58;;;;;;;7.25;1.13;;;22.90;98.60;;;;;;5068479;28;20074;-55
2021/07/05 10:10:24;;;;;;;1.38;1.13;;;22.70;99.70;;;;;;5069040;28;20055;-55
2021/07/05 10:12:57;;;;;;;2.25;1.10;;;22.90;99.90;;;;;;5068575;28;20063;-62
2021/07/05 10:15:24;;;;;;;2.35;1.33;;;23.00;99.90;;;;;;5069045;28;20044;-56
2021/07/05 10:17:51;;;;;;;1.10;0.75;;;22.80;99.90;;;;;;5067109;28;20462;-61
2021/07/05 10:20:29;;;;;;;4.55;0.98;;;22.70;99.90;;;;;;5069231;28;20025;-56
2021/07/05 10:23:00;;;;;;;1.70;1.02;;;22.70;99.90;;;;;;5065014;28;20111;-54
2021/07/05 10:25:30;;;;;;;6.30;0.70;;;22.50;99.90;;;;;;5048829;28;20104;-57
2021/07/05 10:27:56;;;;;;;1.33;1.02;;;22.50;99.90;;;;;;5048326;28;20549;-54
2021/07/05 10:30:23;;;;;;;1.65;0.80;;;22.40;99.90;;;;;;5048620;28;20029;-56
2021/07/05 10:32:50;;;;;;;2.95;1.08;;;22.60;99.90;;;;;;5030629;28;20032;-52
2021/07/05 10:35:20;;;;;;;3.65;0.70;;;22.50;99.90;;;;;;5048797;28;20024;-56
2021/07/05 10:38:16;;;;;;;3.40;0.63;;;22.40;99.90;;;;;;5048486;28;20025;-54
2021/07/05 10:40:50;;;;;;;3.80;1.05;;;22.50;99.90;;;;;;5016722;28;20033;-55
2021/07/05 10:43:42;;;;;;;4.15;0.85;;;22.60;99.90;;;;;;5030768;28;20092;-56
2021/07/05 10:46:08;;;;;;;2.00;0.65;;;22.50;99.90;;;;;;5047965;28;20048;-55
2021/07/05 10:48:41;;;;;;;1.90;0.93;;;22.20;99.90;;;;;;5048310;28;20480;-55
2021/07/05 10:51:09;;;;;;;5.07;0.70;;;22.00;99.90;;;;;;5029638;28;20063;-55
2021/07/05 10:53:41;;;;;;;3.60;0.85;;;22.00;99.90;;;;;;5049123;28;20098;-54
2021/07/05 10:56:29;;;;;;;3.50;0.98;;;21.80;99.60;;;;;;5051257;28;20067;-57
2021/07/05 10:58:56;;;;;;;1.80;0.75;;;21.80;99.90;;;;;;5050749;28;20111;-54
2021/07/05 11:01:41;;;;;;;1.40;0.80;;;21.80;99.90;;;;;;5051578;28;20033;-58
2021/07/05 11:04:17;;;;;;;4.55;0.80;;;22.00;99.90;;;;;;5033263;28;20483;-58
2021/07/05 11:06:43;;;;;;;4.78;0.73;;;22.10;99.90;;;;;;5039787;28;20189;-52
2021/07/05 11:09:16;;;;;;;3.30;0.80;;;22.10;99.90;;;;;;5044032;28;20165;-54
2021/07/05 11:11:51;;;;;;;3.70;1.13;;;22.20;99.90;;;;;;5051780;28;20466;-55
2021/07/05 11:14:28;;;;;;;1.75;0.82;;;22.10;99.90;;;;;;5034934;28;20059;-55
2021/07/05 11:16:54;;;;;;;1.58;0.70;;;22.10;99.90;;;;;;5050853;28;20438;-54
2021/07/05 11:19:40;;;;;;;1.00;0.75;;;22.20;99.90;;;;;;5033868;28;20040;-54
2021/07/05 11:22:26;;;;;;;2.75;1.23;;;22.40;99.90;;;;;;5051501;28;20021;-56
2021/07/05 11:24:56;;;;;;;1.58;0.63;;;22.60;99.90;;;;;;5067196;28;20045;-56
2021/07/05 11:27:52;;;;;;;1.02;0.90;;;23.40;99.90;;;;;;5081360;28;20146;-55
2021/07/05 11:30:37;;;;;;;3.88;1.17;;;23.40;99.80;;;;;;5075875;28;20099;-55
2021/07/05 11:33:18;;;;;;;2.70;0.90;;;23.40;99.90;;;;;;5090858;28;20063;-54
2021/07/05 11:35:44;;;;;;;1.83;0.90;;;23.00;99.90;;;;;;5090819;28;20473;-57
2021/07/05 11:38:32;;;;;;;2.03;1.00;;;22.50;99.90;;;;;;5090462;28;20123;-54
2021/07/05 11:40:58;;;;;;;4.68;0.90;;;22.50;99.90;;;;;;5076361;28;20047;-55
2021/07/05 11:43:59;;;;;;;4.47;0.73;;;22.50;99.90;;;;;;5083649;28;20032;-55
2021/07/05 11:46:28;;;;;;;2.65;1.10;;;22.30;99.90;;;;;;5069906;28;20476;-55
2021/07/05 11:48:57;;;;;;;1.55;0.85;;;22.30;99.90;;;;;;5069356;28;20119;-53
2021/07/05 11:51:43;;;;;;;5.15;0.90;;;22.10;99.90;;;;;;5071231;28;20119;-56
2021/07/05 11:54:22;;;;;;;4.15;1.02;;;21.90;99.90;;;;;;5071835;28;20024;-56
2021/07/05 11:56:56;;;;;;;2.63;1.17;;;22.00;99.90;;;;;;5070766;28;20020;-55
2021/07/05 11:59:29;;;;;;;3.25;0.90;;;22.00;99.90;;;;;;5070934;28;20021;-56
2021/07/05 12:02:12;;;;;;;3.20;0.77;;;21.90;99.90;;;;;;5069870;28;20024;-57
2021/07/05 12:04:46;;;;;;;1.85;1.10;;;21.90;99.90;;;;;;5072961;28;20029;-55
2021/07/05 12:07:22;;;;;;;4.30;0.73;;;22.10;99.90;;;;;;5091823;28;20173;-56
2021/07/05 12:09:52;;;;;;;1.92;0.57;;;22.20;99.90;;;;;;5079287;28;20024;-53
2021/07/05 12:12:20;;;;;;;11.45;2.30;;;22.20;99.90;;;;;;5071001;28;20037;-54
2021/07/05 12:14:48;;;;;;;2.72;1.30;;;22.10;99.90;;;;;;5069685;28;20082;-56
2021/07/05 12:17:15;;;;;;;1.67;0.70;;;22.10;99.90;;;;;;5069975;28;20036;-53
2021/07/05 12:19:43;;;;;;;1.35;0.70;;;22.00;99.90;;;;;;5070692;28;20046;-55
2021/07/05 12:22:14;;;;;;;1.90;0.73;;;21.90;99.90;;;;;;5069983;28;20025;-55
2021/07/05 12:24:43;;;;;;;2.50;0.70;;;21.70;99.90;;;;;;5068990;28;20407;-56
2021/07/05 12:27:14;;;;;;;1.48;0.60;;;21.70;99.90;;;;;;5070182;28;20082;-54
2021/07/05 12:29:49;;;;;;;2.10;0.75;;;21.80;99.90;;;;;;5069586;28;20037;-55
2021/07/05 12:32:28;;;;;;;4.03;0.70;;;22.00;99.90;;;;;;5068721;28;20036;-56
2021/07/05 12:35:04;;;;;;;4.65;0.55;;;21.90;99.90;;;;;;5070465;28;20051;-56
2021/07/05 12:37:40;;;;;;;1.88;0.70;;;21.80;99.90;;;;;;5069291;28;20111;-54
2021/07/05 12:40:06;;;;;;;4.53;0.65;;;21.70;99.90;;;;;;5068379;28;20111;-54
2021/07/05 12:42:47;;;;;;;2.28;0.73;;;21.90;99.90;;;;;;5070413;28;20535;-55
2021/07/05 12:45:16;;;;;;;15.93;1.27;;;21.90;99.90;;;;;;5068140;28;20450;-55
2021/07/05 12:47:53;;;;;;;1.02;0.40;;;22.10;99.90;;;;;;5068652;28;20024;-54
2021/07/05 12:50:23;;;;;;;0.90;0.63;;;22.00;99.90;;;;;;5070414;28;20029;-56
2021/07/05 12:53:04;;;;;;;3.47;0.70;;;22.20;99.90;;;;;;5068335;28;20021;-56
2021/07/05 12:55:30;;;;;;;4.80;0.82;;;21.90;99.90;;;;;;5068786;28;20052;-54